Time,TemperatureF,DewpointF,PressureIn,WindDirection,WindDirectionDegrees,WindSpeedMPH,WindSpeedGustMPH,Humidity,HourlyPrecipIn,Conditions,Clouds,dailyrainin,SoftwareType,DateUTC
2013-02-22 00:09:00,43.5,36.0,30.16,SSW,198,0.0,-999.0,74,-99.99,,,0.00,weatherlink.com 1.10,2013-02-22 08:09:00,
2013-02-22 00:25:00,42.9,36.0,30.17,SSW,198,0.0,-999.0,77,-99.99,,,0.00,weatherlink.com 1.10,2013-02-22 08:25:00,
2013-02-22 00:40:00,42.6,36.0,30.17,SSW,198,0.0,-999.0,78,-99.99,,,0.00,weatherlink.com 1.10,2013-02-22 08:40:00,
2013-02-22 00:54:00,42.5,36.0,30.17,SSW,198,0.0,-999.0,78,-99.99,,,0.00,weatherlink.com 1.10,2013-02-22 08:54:00,
2013-02-22 01:10:00,42.2,36.0,30.17,SSW,198,0.0,-999.0,80,-99.99,,,0.00,weatherlink.com 1.10,2013-02-22 09:10:00,
2013-02-22 01:25:00,42.1,36.0,30.17,SSW,198,0.0,-999.0,80,-99.99,,,0.00,weatherlink.com 1.10,2013-02-22 09:25:00,
2013-02-22 01:40:00,41.9,37.0,30.17,SSW,198,0.0,-999.0,81,-99.99,,,0.00,weatherlink.com 1.10,2013-02-22 09:40:00,
2013-02-22 01:55:00,41.8,37.0,30.18,SSW,198,0.0,-999.0,82,-99.99,,,0.00,weatherlink.com 1.10,2013-02-22 09:55:00,
2013-02-22 02:10:00,41.8,37.0,30.18,SSW,198,0.0,-999.0,82,-99.99,,,0.00,weatherlink.com 1.10,2013-02-22 10:10:00,
2013-02-22 02:25:00,41.6,37.0,30.17,SSW,198,0.0,-999.0,82,-99.99,,,0.00,weatherlink.com 1.10,2013-02-22 10:25:00,
2013-02-22 02:40:00,41.8,37.0,30.17,SSW,198,0.0,-999.0,83,-99.99,,,0.00,weatherlink.com 1.10,2013-02-22 10:40:00,
2013-02-22 02:55:00,41.8,37.0,30.17,SSW,198,0.0,-999.0,84,-99.99,,,0.00,weatherlink.com 1.10,2013-02-22 10:55:00,
2013-02-22 03:10:00,41.9,38.0,30.17,SSW,198,0.0,-999.0,85,-99.99,,,0.00,weatherlink.com 1.10,2013-02-22 11:10:00,
2013-02-22 03:25:00,41.9,38.0,30.17,SSW,198,0.0,-999.0,86,-99.99,,,0.00,weatherlink.com 1.10,2013-02-22 11:25:00,
2013-02-22 03:40:00,42.2,39.0,30.17,SSW,198,0.0,-999.0,87,-99.99,,,0.00,weatherlink.com 1.10,2013-02-22 11:40:00,
2013-02-22 03:55:00,42.1,39.0,30.17,SSW,198,0.0,-999.0,87,-99.99,,,0.00,weatherlink.com 1.10,2013-02-22 11:55:00,
2013-02-22 04:10:00,41.9,38.0,30.17,SSW,198,0.0,-999.0,87,-99.99,,,0.00,weatherlink.com 1.10,2013-02-22 12:10:00,
2013-02-22 04:25:00,41.9,39.0,30.17,SSW,198,0.0,-999.0,88,-99.99,,,0.00,weatherlink.com 1.10,2013-02-22 12:25:00,
2013-02-22 04:40:00,41.9,39.0,30.18,SSW,198,0.0,-999.0,88,-99.99,,,0.00,weatherlink.com 1.10,2013-02-22 12:40:00,
2013-02-22 04:55:00,41.6,38.0,30.17,SSW,198,0.0,-999.0,88,-99.99,,,0.00,weatherlink.com 1.10,2013-02-22 12:55:00,
2013-02-22 05:10:00,41.6,38.0,30.17,SSW,198,0.0,-999.0,88,-99.99,,,0.00,weatherlink.com 1.10,2013-02-22 13:10:00,
2013-02-22 05:25:00,41.6,38.0,30.18,SSW,198,0.0,-999.0,88,-99.99,,,0.00,weatherlink.com 1.10,2013-02-22 13:25:00,
2013-02-22 05:40:00,41.5,39.0,30.18,SSW,198,0.0,-999.0,89,-99.99,,,0.00,weatherlink.com 1.10,2013-02-22 13:40:00,
2013-02-22 05:55:00,41.2,38.0,30.19,SSW,198,0.0,-999.0,88,-99.99,,,0.00,weatherlink.com 1.10,2013-02-22 13:55:00,
2013-02-22 06:10:00,40.9,38.0,30.20,SSW,198,0.0,-999.0,88,-99.99,,,0.00,weatherlink.com 1.10,2013-02-22 14:10:00,
2013-02-22 06:25:00,40.6,37.0,30.20,SSW,198,0.0,-999.0,88,-99.99,,,0.00,weatherlink.com 1.10,2013-02-22 14:25:00,
2013-02-22 06:40:00,40.3,37.0,30.20,SSW,198,0.0,-999.0,88,-99.99,,,0.00,weatherlink.com 1.10,2013-02-22 14:40:00,
2013-02-22 06:55:00,40.6,38.0,30.21,SSW,198,0.0,-999.0,89,-99.99,,,0.00,weatherlink.com 1.10,2013-02-22 14:55:00,
2013-02-22 07:10:00,40.5,38.0,30.21,SSW,198,0.0,-999.0,89,-99.99,,,0.00,weatherlink.com 1.10,2013-02-22 15:10:00,
2013-02-22 07:25:00,40.8,38.0,30.22,SSW,198,0.0,-999.0,89,-99.99,,,0.00,weatherlink.com 1.10,2013-02-22 15:25:00,
2013-02-22 07:40:00,41.2,38.0,30.22,SSW,198,0.0,-999.0,89,-99.99,,,0.00,weatherlink.com 1.10,2013-02-22 15:40:00,
2013-02-22 07:55:00,42.1,39.0,30.22,SSW,198,0.0,-999.0,89,-99.99,,,0.00,weatherlink.com 1.10,2013-02-22 15:55:00,
2013-02-22 08:10:00,43.9,41.0,30.22,SSW,198,0.0,-999.0,88,-99.99,,,0.00,weatherlink.com 1.10,2013-02-22 16:10:00,
2013-02-22 08:25:00,47.3,42.0,30.23,SSW,198,0.0,-999.0,82,-99.99,,,0.00,weatherlink.com 1.10,2013-02-22 16:25:00,
2013-02-22 08:41:00,49.4,42.0,30.24,SSW,198,0.0,-999.0,75,-99.99,,,0.00,weatherlink.com 1.10,2013-02-22 16:41:00,
2013-02-22 08:56:00,50.7,40.0,30.24,SSW,198,2.0,-999.0,68,-99.99,,,0.00,weatherlink.com 1.10,2013-02-22 16:56:00,
2013-02-22 09:10:00,51.6,41.0,30.25,SW,223,0.0,-999.0,67,-99.99,,,0.00,weatherlink.com 1.10,2013-02-22 17:10:00,
2013-02-22 09:25:00,52.2,40.0,30.25,SW,223,0.0,-999.0,64,-99.99,,,0.00,weatherlink.com 1.10,2013-02-22 17:25:00,
2013-02-22 09:40:00,53.2,41.0,30.25,SW,230,0.0,-999.0,63,-99.99,,,0.00,weatherlink.com 1.10,2013-02-22 17:40:00,
2013-02-22 09:55:00,54.8,40.0,30.25,SW,229,0.0,-999.0,57,-99.99,,,0.00,weatherlink.com 1.10,2013-02-22 17:55:00,
2013-02-22 10:11:00,55.1,40.0,30.25,SW,224,0.0,-999.0,58,-99.99,,,0.00,weatherlink.com 1.10,2013-02-22 18:11:00,
2013-02-22 10:26:00,56.0,41.0,30.25,SSW,196,1.0,-999.0,57,-99.99,,,0.00,weatherlink.com 1.10,2013-02-22 18:26:00,
2013-02-22 10:41:00,56.3,41.0,30.25,SSW,199,1.0,-999.0,56,-99.99,,,0.00,weatherlink.com 1.10,2013-02-22 18:41:00,
2013-02-22 10:56:00,56.9,40.0,30.25,SW,221,0.0,-999.0,54,-99.99,,,0.00,weatherlink.com 1.10,2013-02-22 18:56:00,
2013-02-22 11:11:00,57.0,41.0,30.25,SSW,209,0.0,-999.0,55,-99.99,,,0.00,weatherlink.com 1.10,2013-02-22 19:11:00,
2013-02-22 11:26:00,58.1,41.0,30.25,SW,217,0.0,-999.0,53,-99.99,,,0.00,weatherlink.com 1.10,2013-02-22 19:26:00,
2013-02-22 11:41:00,58.6,41.0,30.25,SSW,194,0.0,-999.0,52,-99.99,,,0.00,weatherlink.com 1.10,2013-02-22 19:41:00,
2013-02-22 11:56:00,58.9,40.0,30.25,SSW,205,1.0,-999.0,50,-99.99,,,0.00,weatherlink.com 1.10,2013-02-22 19:56:00,
2013-02-22 12:11:00,59.2,39.0,30.25,West,261,1.0,-999.0,48,-99.99,,,0.00,weatherlink.com 1.10,2013-02-22 20:11:00,
2013-02-22 12:26:00,59.9,40.0,30.25,SE,142,0.0,-999.0,48,-99.99,,,0.00,weatherlink.com 1.10,2013-02-22 20:26:00,
2013-02-22 12:41:00,60.5,40.0,30.25,South,171,0.0,-999.0,48,-99.99,,,0.00,weatherlink.com 1.10,2013-02-22 20:41:00,
2013-02-22 12:56:00,60.4,40.0,30.24,WSW,248,0.0,-999.0,48,-99.99,,,0.00,weatherlink.com 1.10,2013-02-22 20:56:00,
2013-02-22 13:11:00,59.9,40.0,30.23,South,170,1.0,-999.0,49,-99.99,,,0.00,weatherlink.com 1.10,2013-02-22 21:11:00,
2013-02-22 13:26:00,61.3,40.0,30.22,SSW,213,0.0,-999.0,45,-99.99,,,0.00,weatherlink.com 1.10,2013-02-22 21:26:00,
2013-02-22 13:41:00,62.1,37.0,30.22,WSW,238,1.0,-999.0,40,-99.99,,,0.00,weatherlink.com 1.10,2013-02-22 21:41:00,
2013-02-22 13:56:00,62.3,35.0,30.21,WSW,252,1.0,-999.0,36,-99.99,,,0.00,weatherlink.com 1.10,2013-02-22 21:56:00,
2013-02-22 14:11:00,62.6,36.0,30.21,WSW,248,1.0,-999.0,38,-99.99,,,0.00,weatherlink.com 1.10,2013-02-22 22:11:00,
2013-02-22 14:26:00,60.9,38.0,30.20,WSW,246,1.0,-999.0,43,-99.99,,,0.00,weatherlink.com 1.10,2013-02-22 22:26:00,
2013-02-22 14:41:00,59.9,38.0,30.20,WSW,252,5.0,-999.0,45,-99.99,,,0.00,weatherlink.com 1.10,2013-02-22 22:41:00,
2013-02-22 14:56:00,59.8,38.0,30.21,South,189,0.0,-999.0,45,-99.99,,,0.00,weatherlink.com 1.10,2013-02-22 22:56:00,
2013-02-22 15:11:00,59.5,39.0,30.20,NNW,344,1.0,-999.0,47,-99.99,,,0.00,weatherlink.com 1.10,2013-02-22 23:11:00,
2013-02-22 15:26:00,59.8,38.0,30.20,SW,229,1.0,-999.0,45,-99.99,,,0.00,weatherlink.com 1.10,2013-02-22 23:26:00,
2013-02-22 15:41:00,59.6,37.0,30.20,WSW,243,2.0,-999.0,43,-99.99,,,0.00,weatherlink.com 1.10,2013-02-22 23:41:00,
2013-02-22 15:56:00,59.2,42.0,30.20,WSW,239,2.0,-999.0,53,-99.99,,,0.00,weatherlink.com 1.10,2013-02-22 23:56:00,
2013-02-22 16:11:00,57.6,41.0,30.21,SW,233,1.0,-999.0,55,-99.99,,,0.00,weatherlink.com 1.10,2013-02-23 00:11:00,
2013-02-22 16:26:00,57.2,42.0,30.21,SSW,203,3.0,-999.0,57,-99.99,,,0.00,weatherlink.com 1.10,2013-02-23 00:26:00,
2013-02-22 16:41:00,55.6,43.0,30.20,SSE,164,0.0,-999.0,62,-99.99,,,0.00,weatherlink.com 1.10,2013-02-23 00:41:00,
2013-02-22 16:56:00,55.7,43.0,30.20,SSW,194,2.0,-999.0,62,-99.99,,,0.00,weatherlink.com 1.10,2013-02-23 00:56:00,
2013-02-22 17:12:00,54.5,43.0,30.20,West,273,0.0,-999.0,65,-99.99,,,0.00,weatherlink.com 1.10,2013-02-23 01:12:00,
2013-02-22 17:26:00,54.1,43.0,30.20,SW,217,0.0,-999.0,67,-99.99,,,0.00,weatherlink.com 1.10,2013-02-23 01:26:00,
2013-02-22 17:41:00,53.9,43.0,30.19,SW,232,0.0,-999.0,67,-99.99,,,0.00,weatherlink.com 1.10,2013-02-23 01:41:00,
2013-02-22 17:56:00,53.6,43.0,30.20,South,188,0.0,-999.0,67,-99.99,,,0.00,weatherlink.com 1.10,2013-02-23 01:56:00,
2013-02-22 18:12:00,53.2,44.0,30.20,South,187,0.0,-999.0,70,-99.99,,,0.00,weatherlink.com 1.10,2013-02-23 02:12:00,
2013-02-22 18:26:00,52.3,44.0,30.19,SSW,196,0.0,-999.0,74,-99.99,,,0.00,weatherlink.com 1.10,2013-02-23 02:26:00,
2013-02-22 18:42:00,51.6,45.0,30.19,SE,142,0.0,-999.0,77,-99.99,,,0.00,weatherlink.com 1.10,2013-02-23 02:42:00,
2013-02-22 18:56:00,51.0,44.0,30.20,SW,216,0.0,-999.0,78,-99.99,,,0.00,weatherlink.com 1.10,2013-02-23 02:56:00,
2013-02-22 19:11:00,50.4,44.0,30.21,South,180,0.0,-999.0,79,-99.99,,,0.00,weatherlink.com 1.10,2013-02-23 03:11:00,
2013-02-22 19:26:00,49.9,44.0,30.21,ESE,108,0.0,-999.0,80,-99.99,,,0.00,weatherlink.com 1.10,2013-02-23 03:26:00,
2013-02-22 19:41:00,49.5,44.0,30.21,ESE,107,0.0,-999.0,80,-99.99,,,0.00,weatherlink.com 1.10,2013-02-23 03:41:00,
2013-02-22 19:57:00,49.2,44.0,30.22,ESE,107,0.0,-999.0,81,-99.99,,,0.00,weatherlink.com 1.10,2013-02-23 03:57:00,
2013-02-22 20:11:00,49.2,44.0,30.21,ESE,107,0.0,-999.0,82,-99.99,,,0.00,weatherlink.com 1.10,2013-02-23 04:11:00,
2013-02-22 20:26:00,49.1,44.0,30.20,ESE,107,0.0,-999.0,82,-99.99,,,0.00,weatherlink.com 1.10,2013-02-23 04:26:00,
2013-02-22 20:41:00,49.2,44.0,30.20,ESE,107,0.0,-999.0,82,-99.99,,,0.00,weatherlink.com 1.10,2013-02-23 04:41:00,
2013-02-22 20:57:00,49.5,44.0,30.19,SW,219,0.0,-999.0,81,-99.99,,,0.00,weatherlink.com 1.10,2013-02-23 04:57:00,
2013-02-22 21:11:00,49.4,44.0,30.20,SW,219,0.0,-999.0,81,-99.99,,,0.00,weatherlink.com 1.10,2013-02-23 05:11:00,
2013-02-22 21:26:00,48.9,43.0,30.22,SW,219,0.0,-999.0,81,-99.99,,,0.00,weatherlink.com 1.10,2013-02-23 05:26:00,
2013-02-22 21:41:00,48.6,43.0,30.23,SW,219,0.0,-999.0,82,-99.99,,,0.00,weatherlink.com 1.10,2013-02-23 05:41:00,
2013-02-22 21:56:00,48.6,44.0,30.23,SW,219,0.0,-999.0,83,-99.99,,,0.00,weatherlink.com 1.10,2013-02-23 05:56:00,
2013-02-22 22:12:00,49.2,44.0,30.23,WSW,239,0.0,-999.0,82,-99.99,,,0.00,weatherlink.com 1.10,2013-02-23 06:12:00,
2013-02-22 22:27:00,49.6,44.0,30.23,WSW,239,0.0,-999.0,81,-99.99,,,0.00,weatherlink.com 1.10,2013-02-23 06:27:00,
2013-02-22 22:42:00,49.5,44.0,30.25,WSW,239,0.0,-999.0,81,-99.99,,,0.00,weatherlink.com 1.10,2013-02-23 06:42:00,
2013-02-22 22:56:00,49.2,44.0,30.25,WSW,239,0.0,-999.0,81,-99.99,,,0.00,weatherlink.com 1.10,2013-02-23 06:56:00,
2013-02-22 23:11:00,48.8,44.0,30.25,WSW,239,0.0,-999.0,82,-99.99,,,0.00,weatherlink.com 1.10,2013-02-23 07:11:00,
2013-02-22 23:27:00,48.6,43.0,30.24,WSW,239,0.0,-999.0,81,-99.99,,,0.00,weatherlink.com 1.10,2013-02-23 07:27:00,
2013-02-22 23:41:00,48.6,43.0,30.25,WSW,239,0.0,-999.0,80,-99.99,,,0.00,weatherlink.com 1.10,2013-02-23 07:41:00,
2013-02-22 23:56:00,49.2,42.0,30.24,WSW,239,0.0,-999.0,77,-99.99,,,0.00,weatherlink.com 1.10,2013-02-23 07:56:00,